Time;durP1;ratioP1;P1;durP2;ratioP2;P2;SDS_P1;SDS_P2;PMS_P1;PMS_P2;Temp;Humidity;BMP_temperature;BMP_pressure;BME280_temperature;BME280_humidity;BME280_pressure;Samples;Min_cycle;Max_cycle;Signal;HPM_P1;HPM_P2
2022/03/30 00:01:55;;;;;;;43.17;20.27;;;8.70;99.90;;;;;;4986656;28;20782;-73
2022/03/30 00:04:21;;;;;;;43.30;19.95;;;8.70;99.90;;;;;;5003474;28;20081;-73
2022/03/30 00:06:47;;;;;;;43.33;19.55;;;8.70;99.90;;;;;;5007920;28;20022;-73
2022/03/30 00:09:12;;;;;;;45.78;20.15;;;8.70;99.90;;;;;;5002451;28;20042;-73
2022/03/30 00:11:38;;;;;;;41.05;20.42;;;8.70;99.90;;;;;;4988612;28;20038;-73
2022/03/30 00:14:04;;;;;;;39.72;19.92;;;8.70;99.90;;;;;;4989477;28;20029;-73
2022/03/30 00:16:29;;;;;;;37.38;18.60;;;8.60;99.90;;;;;;4986773;28;20510;-73
2022/03/30 00:18:55;;;;;;;44.22;19.63;;;8.60;99.90;;;;;;4987506;28;20057;-72
2022/03/30 00:21:21;;;;;;;42.67;19.95;;;8.60;99.90;;;;;;4987874;28;20055;-73
2022/03/30 00:23:48;;;;;;;45.15;19.88;;;8.50;99.90;;;;;;4986808;28;20061;-73
2022/03/30 00:26:14;;;;;;;40.20;18.65;;;8.50;99.90;;;;;;4989689;28;20026;-73
2022/03/30 00:28:39;;;;;;;40.42;18.65;;;8.40;99.90;;;;;;5001099;28;20038;-72
2022/03/30 00:31:05;;;;;;;41.88;19.50;;;8.40;99.90;;;;;;4985451;28;20035;-72
2022/03/30 00:33:30;;;;;;;40.17;19.38;;;8.40;99.90;;;;;;5001057;28;20027;-73
2022/03/30 00:35:56;;;;;;;41.95;18.42;;;8.40;99.90;;;;;;5002918;28;20081;-73
2022/03/30 00:38:22;;;;;;;42.83;19.25;;;8.40;99.90;;;;;;5002453;28;20045;-73
2022/03/30 00:40:48;;;;;;;42.90;18.55;;;8.40;99.90;;;;;;5002503;28;20092;-73
2022/03/30 00:43:14;;;;;;;41.00;18.48;;;8.40;99.90;;;;;;5004961;28;20019;-73
2022/03/30 00:45:40;;;;;;;40.17;18.60;;;8.40;99.90;;;;;;4992256;28;20034;-73
2022/03/30 00:48:07;;;;;;;38.50;18.58;;;8.40;99.90;;;;;;4984870;28;20051;-73
2022/03/30 00:50:32;;;;;;;38.20;18.27;;;8.30;99.90;;;;;;5000181;28;20445;-73
2022/03/30 00:52:58;;;;;;;43.28;18.98;;;8.30;99.90;;;;;;5008345;28;20030;-72
2022/03/30 00:55:24;;;;;;;39.55;18.30;;;8.30;99.90;;;;;;5005692;28;20086;-73
2022/03/30 00:57:52;;;;;;;42.50;18.45;;;8.20;99.90;;;;;;5007528;28;20454;-73
2022/03/30 01:00:19;;;;;;;42.83;18.10;;;8.30;99.90;;;;;;4991561;28;20098;-73
2022/03/30 01:02:46;;;;;;;42.88;19.33;;;8.20;99.90;;;;;;4987466;28;20030;-73
2022/03/30 01:05:13;;;;;;;36.92;18.50;;;8.20;99.90;;;;;;4987518;28;20019;-73
2022/03/30 01:07:38;;;;;;;45.60;18.67;;;8.20;99.90;;;;;;4987104;28;20090;-72
2022/03/30 01:10:05;;;;;;;41.30;19.27;;;8.20;99.90;;;;;;4997454;28;20015;-73
2022/03/30 01:12:34;;;;;;;44.58;17.92;;;8.20;99.90;;;;;;4986268;28;20119;-72
2022/03/30 01:15:00;;;;;;;36.55;17.98;;;8.20;99.90;;;;;;5005773;28;20038;-72
2022/03/30 01:17:25;;;;;;;41.65;19.08;;;8.20;99.90;;;;;;5004663;28;20026;-73
2022/03/30 01:19:52;;;;;;;45.10;20.17;;;8.20;99.90;;;;;;5004407;28;20037;-73
2022/03/30 01:22:17;;;;;;;42.25;18.92;;;8.10;99.90;;;;;;5005817;28;20046;-73
2022/03/30 01:24:43;;;;;;;43.08;19.42;;;8.10;99.90;;;;;;5007998;28;20045;-73
2022/03/30 01:27:09;;;;;;;43.85;19.67;;;8.10;99.90;;;;;;5006695;28;20078;-73
2022/03/30 01:32:26;;;;;;;41.05;19.02;;;8.10;99.90;;;;;;4986435;28;20046;-73
2022/03/30 01:34:57;;;;;;;38.13;19.70;;;8.00;99.90;;;;;;5003419;28;20033;-73
2022/03/30 01:37:23;;;;;;;44.25;18.58;;;7.90;99.90;;;;;;5005344;28;20038;-73
2022/03/30 01:39:49;;;;;;;42.08;20.08;;;7.90;99.90;;;;;;4993758;28;20144;-73
2022/03/30 01:42:15;;;;;;;39.53;18.40;;;7.90;99.90;;;;;;4986635;28;20046;-73
2022/03/30 01:44:41;;;;;;;45.25;19.73;;;7.80;99.90;;;;;;5000627;28;20022;-73
2022/03/30 01:47:07;;;;;;;39.30;18.42;;;7.80;99.90;;;;;;5007287;28;20034;-73
2022/03/30 01:49:32;;;;;;;35.25;18.08;;;7.60;99.90;;;;;;5002827;28;20113;-73
2022/03/30 01:51:59;;;;;;;40.97;17.85;;;7.60;99.90;;;;;;4988002;28;20081;-73
2022/03/30 01:54:27;;;;;;;43.55;18.20;;;7.50;99.90;;;;;;4987564;28;20038;-73
2022/03/30 01:56:54;;;;;;;39.97;18.50;;;7.50;99.90;;;;;;4991893;28;20027;-73
2022/03/30 01:59:21;;;;;;;41.22;18.85;;;7.50;99.90;;;;;;4992476;28;20053;-73
2022/03/30 02:01:47;;;;;;;45.38;18.50;;;7.50;99.90;;;;;;5004136;28;20073;-73
2022/03/30 02:04:14;;;;;;;41.80;18.50;;;7.40;99.90;;;;;;4993508;28;20552;-73
2022/03/30 02:06:39;;;;;;;37.65;18.40;;;7.40;99.90;;;;;;4986150;28;20023;-73
2022/03/30 02:09:06;;;;;;;46.42;19.48;;;7.40;99.90;;;;;;4992428;28;20069;-73
2022/03/30 02:11:32;;;;;;;37.35;17.92;;;7.40;99.90;;;;;;5004349;28;20027;-73
2022/03/30 02:13:57;;;;;;;43.63;18.60;;;7.30;99.90;;;;;;5005780;28;20026;-73
2022/03/30 02:16:24;;;;;;;42.78;18.58;;;7.30;99.90;;;;;;5006042;28;20049;-73
2022/03/30 02:18:50;;;;;;;40.25;17.92;;;7.30;99.90;;;;;;5003944;28;20022;-73
2022/03/30 02:21:16;;;;;;;42.83;18.92;;;7.30;99.90;;;;;;5001591;28;20050;-73
2022/03/30 02:23:45;;;;;;;43.65;18.95;;;7.20;99.90;;;;;;4985537;28;20023;-73
2022/03/30 02:26:12;;;;;;;43.17;19.77;;;7.20;99.90;;;;;;4986169;28;20022;-73
2022/03/30 02:28:38;;;;;;;41.28;19.40;;;7.20;99.90;;;;;;4997644;28;20033;-73
2022/03/30 02:31:03;;;;;;;45.45;20.20;;;7.20;99.90;;;;;;4988942;28;20019;-73
2022/03/30 02:33:29;;;;;;;46.35;19.98;;;7.20;99.90;;;;;;4986061;28;20034;-73
2022/03/30 02:35:56;;;;;;;44.72;20.42;;;7.10;99.90;;;;;;4985861;28;20029;-73
2022/03/30 02:38:22;;;;;;;40.78;18.90;;;7.10;99.90;;;;;;5002787;28;20026;-73
2022/03/30 02:40:47;;;;;;;46.08;19.63;;;7.10;99.90;;;;;;4992860;28;20482;-74
2022/03/30 02:43:16;;;;;;;38.35;18.38;;;7.00;99.90;;;;;;5000847;28;20053;-73
2022/03/30 02:45:42;;;;;;;41.25;18.02;;;7.00;99.90;;;;;;5001720;28;20019;-73
2022/03/30 02:48:21;;;;;;;42.85;18.45;;;7.00;99.90;;;;;;4983653;28;20037;-73
2022/03/30 02:50:51;;;;;;;43.08;18.15;;;7.00;99.90;;;;;;4995469;28;20115;-73
2022/03/30 02:53:18;;;;;;;42.70;19.27;;;7.00;99.90;;;;;;5007287;28;20422;-73
2022/03/30 02:55:44;;;;;;;44.20;19.17;;;6.90;99.90;;;;;;5001786;28;20046;-73
2022/03/30 02:58:11;;;;;;;49.03;20.75;;;6.90;99.90;;;;;;5003410;28;20048;-73
2022/03/30 03:00:37;;;;;;;43.38;19.35;;;6.90;99.90;;;;;;4992641;28;20027;-73
2022/03/30 03:03:04;;;;;;;42.55;19.73;;;6.90;99.90;;;;;;4987278;28;20027;-73
2022/03/30 03:05:32;;;;;;;46.40;20.58;;;6.80;99.90;;;;;;4983416;28;20038;-73
2022/03/30 03:07:58;;;;;;;48.08;19.30;;;6.80;99.90;;;;;;4964314;28;20045;-73
2022/03/30 03:10:24;;;;;;;44.20;19.17;;;6.80;99.90;;;;;;4994724;28;20498;-73
2022/03/30 03:12:50;;;;;;;39.45;19.15;;;6.80;99.90;;;;;;5000463;28;20030;-73
2022/03/30 03:15:15;;;;;;;39.17;19.58;;;6.80;99.90;;;;;;4997978;28;20038;-73
2022/03/30 03:17:41;;;;;;;41.88;19.63;;;6.80;99.90;;;;;;4986770;28;20030;-73
2022/03/30 03:20:07;;;;;;;44.80;19.08;;;6.80;99.90;;;;;;4967522;28;20057;-73
2022/03/30 03:22:33;;;;;;;45.90;19.83;;;6.80;99.90;;;;;;4979536;28;20042;-73
2022/03/30 03:24:58;;;;;;;43.17;19.50;;;6.80;99.90;;;;;;4996117;28;20043;-73
2022/03/30 03:27:24;;;;;;;42.10;18.25;;;6.70;99.90;;;;;;4999361;28;20027;-73
2022/03/30 03:29:49;;;;;;;40.95;18.65;;;6.70;99.90;;;;;;4988885;28;20042;-73
2022/03/30 03:32:15;;;;;;;42.17;18.55;;;6.70;99.90;;;;;;4962458;28;20031;-73
2022/03/30 03:34:40;;;;;;;45.10;18.05;;;6.70;99.90;;;;;;4980965;28;20031;-73
2022/03/30 03:37:06;;;;;;;50.47;19.33;;;6.70;99.90;;;;;;4999413;28;20101;-73
2022/03/30 03:39:31;;;;;;;42.72;17.70;;;6.70;99.90;;;;;;4991402;28;20479;-73
2022/03/30 03:41:57;;;;;;;44.67;18.20;;;6.60;99.90;;;;;;4997123;28;20034;-73
2022/03/30 03:44:23;;;;;;;44.38;18.70;;;6.60;99.90;;;;;;4993273;28;20023;-73
2022/03/30 03:46:49;;;;;;;45.58;19.00;;;6.60;99.90;;;;;;4983689;28;20057;-73
2022/03/30 03:49:14;;;;;;;44.80;18.55;;;6.60;99.90;;;;;;4996566;28;20022;-73
2022/03/30 03:51:40;;;;;;;44.05;18.17;;;6.50;99.90;;;;;;4980493;28;20030;-73
2022/03/30 03:54:05;;;;;;;45.65;18.08;;;6.50;99.90;;;;;;4977802;28;20022;-73
2022/03/30 03:56:31;;;;;;;44.03;18.67;;;6.50;99.90;;;;;;4986028;28;20035;-73
2022/03/30 03:58:57;;;;;;;42.92;17.30;;;6.50;99.90;;;;;;4973787;28;20037;-73
2022/03/30 04:01:22;;;;;;;45.83;18.83;;;6.50;99.90;;;;;;4974282;28;20045;-73
2022/03/30 04:03:48;;;;;;;45.13;18.67;;;6.50;99.90;;;;;;4974508;28;20051;-73
2022/03/30 04:06:14;;;;;;;45.60;18.75;;;6.50;99.90;;;;;;4974433;28;20058;-73
2022/03/30 04:08:39;;;;;;;41.25;18.13;;;6.50;99.90;;;;;;4977431;28;20034;-73
2022/03/30 04:11:05;;;;;;;46.88;18.52;;;6.50;99.90;;;;;;4994182;28;20030;-73
2022/03/30 04:13:31;;;;;;;41.72;18.60;;;6.50;99.90;;;;;;4994887;28;20058;-73
2022/03/30 04:15:56;;;;;;;50.03;20.02;;;6.50;99.90;;;;;;4982339;28;20019;-73
2022/03/30 04:18:23;;;;;;;44.22;18.60;;;6.50;99.90;;;;;;4973432;28;20046;-73
2022/03/30 04:20:49;;;;;;;46.28;19.30;;;6.50;99.90;;;;;;4974887;28;20125;-73
2022/03/30 04:23:14;;;;;;;42.85;18.88;;;6.50;99.90;;;;;;4989085;28;20038;-73
2022/03/30 04:25:40;;;;;;;42.17;18.27;;;6.50;99.90;;;;;;4975775;28;20056;-73
2022/03/30 04:28:05;;;;;;;47.33;18.13;;;6.50;99.90;;;;;;4975207;28;20486;-73
2022/03/30 04:30:31;;;;;;;45.00;19.13;;;6.50;99.90;;;;;;4982867;28;20158;-73
2022/03/30 04:32:56;;;;;;;43.20;19.00;;;6.50;99.90;;;;;;4989481;28;20499;-73
2022/03/30 04:35:25;;;;;;;47.22;19.10;;;6.50;99.90;;;;;;4992842;28;20449;-73
2022/03/30 04:37:54;;;;;;;46.33;19.30;;;6.50;99.90;;;;;;4990615;28;20117;-73
2022/03/30 04:40:22;;;;;;;45.35;19.13;;;6.50;99.90;;;;;;4988384;28;20519;-73
2022/03/30 04:42:48;;;;;;;43.72;19.00;;;6.50;99.90;;;;;;4973287;28;20447;-73
2022/03/30 04:45:14;;;;;;;43.08;18.63;;;6.40;99.90;;;;;;4976910;28;20519;-73
2022/03/30 04:47:39;;;;;;;45.92;19.80;;;6.40;99.90;;;;;;4981261;28;20070;-73
2022/03/30 04:50:06;;;;;;;48.35;19.88;;;6.40;99.90;;;;;;4988229;28;20037;-73
2022/03/30 04:52:32;;;;;;;45.53;19.65;;;6.40;99.90;;;;;;4990075;28;20034;-73
2022/03/30 04:54:58;;;;;;;41.60;18.73;;;6.30;99.90;;;;;;4988770;28;20019;-74
2022/03/30 04:57:24;;;;;;;43.42;19.23;;;6.30;99.90;;;;;;4972049;28;20030;-74
2022/03/30 04:59:50;;;;;;;45.03;18.20;;;6.30;99.90;;;;;;4988932;28;20048;-74
2022/03/30 05:02:15;;;;;;;45.17;20.15;;;6.20;99.90;;;;;;4988088;28;20022;-74
2022/03/30 05:04:41;;;;;;;51.03;19.55;;;6.20;99.90;;;;;;4978156;28;20023;-74
2022/03/30 05:07:06;;;;;;;43.58;19.17;;;6.10;99.90;;;;;;4987430;28;20018;-74
2022/03/30 05:09:33;;;;;;;47.65;20.08;;;6.10;99.90;;;;;;4984227;28;20050;-74
2022/03/30 05:11:59;;;;;;;50.47;19.45;;;6.10;99.90;;;;;;4985516;28;20034;-74
2022/03/30 05:14:24;;;;;;;46.85;19.52;;;6.10;99.90;;;;;;4976157;28;20442;-74
2022/03/30 05:16:50;;;;;;;46.45;19.50;;;6.00;99.90;;;;;;4980878;28;20015;-73
2022/03/30 05:19:15;;;;;;;40.03;18.63;;;5.90;99.90;;;;;;4975899;28;20030;-73
2022/03/30 05:21:41;;;;;;;46.50;19.25;;;5.90;99.90;;;;;;4980869;28;20047;-73
2022/03/30 05:24:07;;;;;;;47.72;19.33;;;5.90;99.90;;;;;;4985545;28;20030;-73
2022/03/30 05:26:33;;;;;;;50.47;18.92;;;5.90;99.90;;;;;;4988426;28;20105;-74
2022/03/30 05:28:58;;;;;;;40.95;19.42;;;6.00;99.90;;;;;;4984095;28;20058;-73
2022/03/30 05:31:24;;;;;;;43.70;19.55;;;6.00;99.90;;;;;;4985617;28;20034;-74
2022/03/30 05:33:50;;;;;;;46.45;20.00;;;6.00;99.90;;;;;;4990445;28;20103;-74
2022/03/30 05:36:17;;;;;;;43.70;18.85;;;6.00;99.90;;;;;;4990151;28;20474;-74
2022/03/30 05:38:44;;;;;;;41.42;18.92;;;6.00;99.90;;;;;;4991648;28;20194;-75
2022/03/30 05:41:10;;;;;;;44.92;19.95;;;6.00;99.90;;;;;;4977552;28;20023;-75
2022/03/30 05:43:35;;;;;;;47.97;20.08;;;6.00;99.90;;;;;;4992095;28;20029;-73
2022/03/30 05:46:01;;;;;;;51.35;19.30;;;6.00;99.90;;;;;;4994711;28;20140;-73
2022/03/30 05:48:26;;;;;;;48.08;19.50;;;6.00;99.90;;;;;;4993356;28;20030;-74
2022/03/30 05:50:55;;;;;;;43.35;18.95;;;6.00;99.90;;;;;;4992790;28;20027;-74
2022/03/30 05:53:21;;;;;;;46.13;19.90;;;6.00;99.90;;;;;;4990725;28;20323;-75
2022/03/30 05:55:46;;;;;;;43.65;20.00;;;6.00;99.90;;;;;;4984620;28;20015;-74
2022/03/30 05:58:14;;;;;;;44.88;19.70;;;5.90;99.90;;;;;;4992334;28;20045;-74
2022/03/30 06:00:40;;;;;;;54.03;20.98;;;5.90;99.90;;;;;;4993801;28;20038;-74
2022/03/30 06:03:06;;;;;;;48.13;19.45;;;5.90;99.90;;;;;;4994042;28;20018;-74
2022/03/30 06:05:31;;;;;;;52.75;20.63;;;5.90;99.90;;;;;;4992247;28;20029;-74
2022/03/30 06:07:59;;;;;;;55.05;20.30;;;6.00;99.90;;;;;;4994829;28;20062;-74
2022/03/30 06:10:26;;;;;;;53.75;19.77;;;5.90;99.90;;;;;;4985917;28;20046;-75
2022/03/30 06:12:52;;;;;;;45.70;19.58;;;5.90;99.90;;;;;;4988034;28;20444;-74
2022/03/30 06:15:18;;;;;;;49.95;19.58;;;6.00;99.90;;;;;;4991844;28;20113;-74
2022/03/30 06:17:43;;;;;;;44.42;19.45;;;6.00;99.90;;;;;;4993816;28;20036;-74
2022/03/30 06:20:10;;;;;;;50.70;19.83;;;6.00;99.90;;;;;;4990189;28;20081;-74
2022/03/30 06:22:36;;;;;;;45.55;19.23;;;6.00;99.90;;;;;;4987296;28;20054;-74
2022/03/30 06:25:02;;;;;;;43.83;18.42;;;6.00;99.90;;;;;;4992970;28;20097;-74
2022/03/30 06:27:27;;;;;;;46.42;18.50;;;6.00;99.90;;;;;;4983246;28;20292;-74
2022/03/30 06:29:53;;;;;;;54.17;19.48;;;6.10;99.90;;;;;;4975536;28;20089;-75
2022/03/30 06:32:19;;;;;;;43.97;18.65;;;6.10;99.90;;;;;;4991746;28;20054;-74
2022/03/30 06:34:45;;;;;;;41.42;19.15;;;6.10;99.90;;;;;;4991450;28;20109;-74
2022/03/30 06:37:11;;;;;;;44.95;19.88;;;6.20;99.90;;;;;;4984571;28;20018;-75
2022/03/30 06:39:37;;;;;;;48.00;19.73;;;6.20;99.90;;;;;;4983897;28;20410;-75
2022/03/30 06:42:03;;;;;;;48.80;20.02;;;6.30;99.90;;;;;;4983122;28;20394;-75
2022/03/30 06:44:31;;;;;;;44.42;19.88;;;6.30;99.90;;;;;;4993638;28;20049;-75
2022/03/30 06:46:57;;;;;;;44.03;19.92;;;6.40;99.90;;;;;;4983849;28;20031;-74
2022/03/30 06:49:22;;;;;;;41.42;19.67;;;6.40;99.90;;;;;;4992729;28;20034;-74
2022/03/30 06:51:48;;;;;;;41.13;19.75;;;6.40;99.90;;;;;;5008234;28;20024;-74
2022/03/30 06:54:13;;;;;;;50.05;20.60;;;6.50;99.90;;;;;;5006580;28;20315;-74
2022/03/30 06:56:39;;;;;;;47.28;20.20;;;6.60;99.90;;;;;;5002223;28;20042;-73
2022/03/30 06:59:05;;;;;;;54.05;19.80;;;6.60;99.90;;;;;;4988247;28;20042;-74
2022/03/30 07:01:31;;;;;;;49.55;20.00;;;6.70;99.90;;;;;;5002226;28;20023;-74
2022/03/30 07:03:56;;;;;;;47.70;19.15;;;6.70;99.90;;;;;;4975187;28;20030;-74
2022/03/30 07:06:22;;;;;;;44.38;18.90;;;6.70;99.90;;;;;;4992561;28;20034;-74
2022/03/30 07:11:31;;;;;;;45.97;18.95;;;6.80;99.90;;;;;;4992846;28;20033;-75
2022/03/30 07:13:58;;;;;;;49.15;20.13;;;6.90;99.90;;;;;;4992587;28;20094;-75
2022/03/30 07:16:24;;;;;;;45.90;19.30;;;7.00;99.90;;;;;;4992678;28;20022;-75
2022/03/30 07:18:50;;;;;;;46.83;18.08;;;7.10;99.90;;;;;;4992453;28;20022;-75
2022/03/30 07:21:16;;;;;;;46.75;19.67;;;7.10;99.90;;;;;;4992193;28;20340;-75
2022/03/30 07:23:42;;;;;;;47.42;19.40;;;7.20;99.90;;;;;;4992471;28;20541;-74
2022/03/30 07:26:07;;;;;;;45.85;19.65;;;7.20;99.90;;;;;;4992377;28;20037;-75
2022/03/30 07:28:35;;;;;;;40.25;19.17;;;7.30;99.90;;;;;;4992204;28;20398;-74
2022/03/30 07:31:01;;;;;;;49.03;19.05;;;7.40;99.90;;;;;;4992441;28;20018;-75
2022/03/30 07:33:27;;;;;;;46.15;18.90;;;7.40;99.90;;;;;;4988440;28;20029;-75
2022/03/30 07:35:52;;;;;;;48.10;19.70;;;7.50;99.90;;;;;;4955369;28;20023;-75
2022/03/30 07:38:20;;;;;;;43.58;18.73;;;7.50;99.90;;;;;;4981188;28;20093;-75
2022/03/30 07:40:47;;;;;;;43.50;18.08;;;7.60;99.90;;;;;;4991420;28;20041;-76
2022/03/30 07:43:14;;;;;;;42.75;18.80;;;7.70;99.90;;;;;;4990745;28;20440;-75
2022/03/30 07:45:40;;;;;;;38.90;18.83;;;7.70;99.90;;;;;;4990047;28;20138;-76
2022/03/30 07:48:06;;;;;;;44.55;20.13;;;7.80;99.90;;;;;;4983597;28;20081;-76
2022/03/30 07:50:32;;;;;;;40.92;18.08;;;7.80;99.90;;;;;;4981860;28;20036;-76
2022/03/30 07:52:58;;;;;;;38.72;18.40;;;7.90;99.90;;;;;;4981285;28;20097;-75
2022/03/30 07:55:25;;;;;;;39.33;18.23;;;8.00;99.90;;;;;;4955517;28;20410;-75
2022/03/30 07:57:51;;;;;;;37.25;17.63;;;8.10;99.90;;;;;;4991615;28;20030;-75
2022/03/30 08:00:17;;;;;;;35.83;17.73;;;8.20;99.90;;;;;;4990797;28;20022;-75
2022/03/30 08:02:47;;;;;;;35.83;17.63;;;8.30;99.90;;;;;;4991837;28;20041;-75
2022/03/30 08:05:14;;;;;;;35.22;18.42;;;8.40;99.90;;;;;;4991693;28;20032;-76
2022/03/30 08:07:40;;;;;;;40.33;18.10;;;8.60;99.90;;;;;;4991768;28;20437;-75
2022/03/30 08:10:08;;;;;;;38.08;18.60;;;8.70;99.90;;;;;;4991618;28;20022;-74
2022/03/30 08:12:34;;;;;;;40.25;17.40;;;8.80;99.90;;;;;;4990953;28;20026;-75
2022/03/30 08:15:00;;;;;;;38.17;17.63;;;9.00;99.90;;;;;;4991264;28;20027;-75
2022/03/30 08:17:26;;;;;;;36.05;17.40;;;9.10;99.90;;;;;;4991553;28;20085;-73
2022/03/30 08:19:52;;;;;;;37.60;17.65;;;9.30;99.90;;;;;;4991401;28;20494;-73
2022/03/30 08:22:28;;;;;;;36.17;17.42;;;9.40;99.90;;;;;;4991767;28;20066;-73
2022/03/30 08:24:59;;;;;;;41.05;17.40;;;9.50;99.90;;;;;;4971997;28;20039;-74
2022/03/30 08:27:27;;;;;;;34.53;16.33;;;9.60;99.90;;;;;;4971821;28;20411;-74
2022/03/30 08:29:54;;;;;;;38.88;17.08;;;9.70;99.90;;;;;;4972131;28;20391;-74
2022/03/30 08:32:21;;;;;;;33.28;16.10;;;9.80;99.90;;;;;;4972005;28;20394;-74
2022/03/30 08:34:47;;;;;;;35.08;16.75;;;9.90;99.90;;;;;;4971916;28;20046;-74
2022/03/30 08:37:13;;;;;;;32.42;15.98;;;9.90;99.90;;;;;;4971930;28;20107;-74
2022/03/30 08:39:39;;;;;;;27.15;15.20;;;10.00;99.90;;;;;;4971633;28;20041;-74
2022/03/30 08:42:05;;;;;;;30.55;14.70;;;10.00;99.90;;;;;;4984442;28;20034;-75
2022/03/30 08:44:32;;;;;;;20.63;10.07;;;10.10;99.90;;;;;;4988794;28;20467;-74
2022/03/30 08:46:59;;;;;;;15.65;8.80;;;10.10;99.90;;;;;;4989427;28;20410;-74
2022/03/30 08:49:26;;;;;;;17.00;9.45;;;10.20;99.90;;;;;;4986686;28;20117;-74
2022/03/30 08:51:53;;;;;;;14.93;8.57;;;10.20;99.90;;;;;;4987639;28;20101;-74
2022/03/30 08:54:19;;;;;;;15.20;8.10;;;10.30;99.90;;;;;;4987335;28;20494;-74
2022/03/30 08:56:46;;;;;;;16.67;7.55;;;10.30;99.90;;;;;;4984209;28;20026;-74
2022/03/30 08:59:19;;;;;;;13.00;7.57;;;10.40;99.90;;;;;;4987850;28;20035;-75
2022/03/30 09:01:45;;;;;;;16.00;7.88;;;10.50;99.90;;;;;;4988437;28;20050;-74
2022/03/30 09:04:14;;;;;;;12.63;7.30;;;10.50;99.90;;;;;;4985976;28;20058;-74
2022/03/30 09:06:44;;;;;;;12.85;7.00;;;10.50;99.90;;;;;;4971671;28;20022;-74
2022/03/30 09:09:10;;;;;;;13.65;7.38;;;10.50;99.90;;;;;;4988923;28;20023;-74
2022/03/30 09:11:52;;;;;;;12.45;6.50;;;10.60;99.90;;;;;;4987694;28;20105;-73
2022/03/30 09:14:19;;;;;;;11.13;6.82;;;10.60;99.90;;;;;;4992204;28;20026;-74
2022/03/30 09:16:51;;;;;;;11.80;6.47;;;10.70;99.90;;;;;;4991865;28;20027;-74
2022/03/30 09:19:18;;;;;;;12.93;6.70;;;10.80;99.90;;;;;;4987929;28;20042;-74
2022/03/30 09:21:52;;;;;;;16.65;6.90;;;10.90;99.90;;;;;;4985880;28;20050;-72
2022/03/30 09:24:21;;;;;;;13.90;7.13;;;11.00;99.90;;;;;;4982965;28;20027;-73
2022/03/30 09:26:48;;;;;;;13.15;7.10;;;11.10;99.90;;;;;;4982813;28;20254;-74
2022/03/30 09:29:14;;;;;;;13.02;6.63;;;11.20;99.90;;;;;;4985818;28;20022;-74
2022/03/30 09:31:41;;;;;;;11.25;6.55;;;11.30;99.90;;;;;;4987203;28;20133;-74
2022/03/30 09:34:09;;;;;;;11.45;6.40;;;11.40;99.90;;;;;;4988134;28;20512;-74
2022/03/30 09:36:37;;;;;;;11.05;6.55;;;11.50;99.90;;;;;;4989421;28;20033;-74
2022/03/30 09:39:05;;;;;;;13.98;6.93;;;11.50;99.90;;;;;;4991224;28;20538;-74
2022/03/30 09:41:49;;;;;;;16.77;6.75;;;11.60;99.90;;;;;;4985549;28;20037;-74
2022/03/30 09:44:15;;;;;;;10.25;6.45;;;11.70;99.90;;;;;;4990546;28;20030;-74
2022/03/30 09:46:54;;;;;;;10.48;6.40;;;11.90;99.90;;;;;;4977352;28;20057;-74
2022/03/30 09:49:31;;;;;;;13.65;6.90;;;12.00;99.90;;;;;;4982747;28;20483;-74
2022/03/30 09:51:57;;;;;;;10.85;6.45;;;12.00;99.90;;;;;;4984539;28;20023;-74
2022/03/30 09:54:43;;;;;;;12.43;7.20;;;12.00;99.90;;;;;;4982922;28;20042;-74
2022/03/30 09:57:14;;;;;;;14.52;8.25;;;12.10;99.90;;;;;;4973865;28;20125;-74
2022/03/30 10:00:04;;;;;;;13.77;8.27;;;12.20;99.90;;;;;;4976842;28;20465;-74
2022/03/30 10:02:39;;;;;;;13.13;8.45;;;12.20;99.90;;;;;;4992843;28;20072;-74
2022/03/30 10:05:06;;;;;;;14.63;7.85;;;12.10;99.90;;;;;;4984882;28;20430;-74
2022/03/30 10:07:32;;;;;;;15.90;8.65;;;12.10;99.90;;;;;;4980759;28;20491;-74
2022/03/30 10:10:02;;;;;;;16.17;8.07;;;12.10;99.90;;;;;;4987000;28;20141;-74
2022/03/30 10:12:28;;;;;;;16.45;8.80;;;12.10;99.90;;;;;;4989263;28;20042;-74
2022/03/30 10:14:55;;;;;;;17.17;8.52;;;12.10;99.90;;;;;;4993025;28;20153;-74
2022/03/30 10:17:22;;;;;;;13.05;8.18;;;12.20;99.90;;;;;;4975572;28;20031;-73
2022/03/30 10:19:49;;;;;;;12.68;8.20;;;12.20;99.90;;;;;;4991757;28;20117;-73
2022/03/30 10:22:52;;;;;;;15.60;8.35;;;12.20;99.90;;;;;;4992226;28;20046;-73
2022/03/30 10:25:43;;;;;;;18.17;8.50;;;12.30;99.90;;;;;;4988914;28;20027;-74
2022/03/30 10:28:14;;;;;;;13.75;7.88;;;12.50;99.90;;;;;;4991616;28;20053;-73
2022/03/30 10:30:43;;;;;;;16.13;8.95;;;12.50;99.90;;;;;;4990910;28;20069;-73
2022/03/30 10:33:10;;;;;;;16.08;8.63;;;12.50;99.90;;;;;;4989057;28;20026;-74
2022/03/30 10:35:41;;;;;;;18.17;9.45;;;12.50;99.90;;;;;;4989891;28;20046;-74
2022/03/30 10:38:08;;;;;;;14.48;8.73;;;12.50;99.90;;;;;;4991760;28;20038;-74
2022/03/30 10:40:35;;;;;;;22.00;10.75;;;12.50;99.90;;;;;;4988288;28;20042;-74
2022/03/30 10:43:03;;;;;;;20.40;10.93;;;12.60;99.90;;;;;;4988938;28;20030;-74
2022/03/30 10:45:29;;;;;;;25.75;11.15;;;12.60;99.90;;;;;;4991171;28;20038;-75
2022/03/30 10:48:23;;;;;;;19.80;10.45;;;12.70;99.90;;;;;;4991817;28;20028;-75
2022/03/30 10:51:02;;;;;;;22.92;11.02;;;12.70;99.90;;;;;;4988548;28;20034;-74
2022/03/30 10:53:31;;;;;;;18.42;10.15;;;12.80;99.90;;;;;;4974541;28;20053;-74
2022/03/30 10:56:14;;;;;;;20.15;10.57;;;12.80;99.90;;;;;;4992409;28;20041;-74
2022/03/30 10:59:00;;;;;;;17.92;10.68;;;12.80;99.90;;;;;;4992407;28;20041;-74
2022/03/30 11:01:34;;;;;;;17.52;10.45;;;13.00;99.90;;;;;;4991615;28;20060;-74
2022/03/30 11:04:10;;;;;;;17.50;9.82;;;13.00;99.90;;;;;;4990207;28;20130;-74
2022/03/30 11:06:38;;;;;;;21.15;9.27;;;13.00;99.90;;;;;;4991484;28;20723;-74
2022/03/30 11:09:07;;;;;;;16.20;8.27;;;12.90;99.90;;;;;;4993041;28;20596;-74
2022/03/30 11:11:40;;;;;;;13.50;8.07;;;12.80;99.90;;;;;;4987840;28;20083;-74
2022/03/30 11:14:26;;;;;;;12.77;8.23;;;12.80;99.90;;;;;;4993049;28;20022;-75
2022/03/30 11:16:57;;;;;;;15.82;8.88;;;12.70;99.90;;;;;;4973133;28;20042;-74
2022/03/30 11:19:29;;;;;;;14.85;8.65;;;12.70;99.90;;;;;;4988250;28;20042;-74
2022/03/30 11:22:11;;;;;;;15.73;8.65;;;12.80;99.90;;;;;;4989505;28;20334;-74
2022/03/30 11:24:38;;;;;;;19.27;9.00;;;12.80;99.90;;;;;;4991974;28;20134;-74
2022/03/30 11:27:04;;;;;;;14.98;9.10;;;13.00;99.90;;;;;;4992342;28;20104;-74
2022/03/30 11:29:48;;;;;;;15.38;8.07;;;13.20;99.90;;;;;;4990402;28;20035;-74
2022/03/30 11:32:30;;;;;;;16.80;8.77;;;13.30;99.90;;;;;;4973066;28;20538;-74
2022/03/30 11:35:04;;;;;;;16.25;8.95;;;13.50;99.90;;;;;;4990739;28;20050;-75
2022/03/30 11:37:36;;;;;;;18.13;9.10;;;13.70;99.90;;;;;;4989146;28;20184;-74
2022/03/30 11:40:03;;;;;;;15.95;9.05;;;13.80;99.90;;;;;;4990503;28;20061;-74
2022/03/30 11:42:29;;;;;;;13.35;8.35;;;14.00;99.90;;;;;;4988075;28;20034;-74
2022/03/30 11:45:12;;;;;;;14.88;7.90;;;14.10;99.70;;;;;;4989598;28;20033;-74
2022/03/30 11:47:59;;;;;;;16.38;7.97;;;14.20;98.80;;;;;;4990264;28;20092;-75
2022/03/30 11:50:27;;;;;;;16.42;8.23;;;14.30;98.10;;;;;;4984500;28;20088;-74
2022/03/30 11:53:01;;;;;;;13.45;8.38;;;14.40;97.30;;;;;;4991181;28;20022;-75
2022/03/30 11:55:29;;;;;;;15.70;8.75;;;14.50;96.90;;;;;;4989586;28;20500;-74
2022/03/30 11:57:58;;;;;;;12.40;7.80;;;14.70;96.00;;;;;;4988447;28;20042;-75
2022/03/30 12:00:25;;;;;;;14.15;8.63;;;14.70;95.90;;;;;;4987420;28;20026;-74
2022/03/30 12:02:55;;;;;;;14.77;8.73;;;14.80;94.90;;;;;;4990059;28;20018;-74
2022/03/30 12:05:22;;;;;;;14.05;8.20;;;14.80;94.90;;;;;;4990632;28;20521;-74
2022/03/30 12:07:56;;;;;;;12.70;7.97;;;14.90;94.00;;;;;;4989859;28;20042;-74
2022/03/30 12:10:30;;;;;;;14.27;7.93;;;14.90;93.20;;;;;;4989881;28;20046;-75
2022/03/30 12:12:57;;;;;;;15.20;8.48;;;14.90;92.60;;;;;;4990363;28;20022;-74
2022/03/30 12:15:22;;;;;;;17.50;8.95;;;14.90;92.30;;;;;;4991082;28;20029;-74
2022/03/30 12:17:59;;;;;;;13.48;8.68;;;15.00;92.20;;;;;;4989863;28;20523;-74
2022/03/30 12:20:30;;;;;;;16.67;8.38;;;15.20;91.90;;;;;;4988420;28;20022;-74
2022/03/30 12:23:01;;;;;;;13.77;7.97;;;15.20;91.00;;;;;;4985542;28;20054;-75
2022/03/30 12:25:32;;;;;;;11.65;7.68;;;15.30;90.20;;;;;;4989389;28;20045;-74
2022/03/30 12:27:59;;;;;;;12.93;7.40;;;15.30;89.30;;;;;;4990372;28;20026;-75
2022/03/30 12:30:27;;;;;;;17.63;8.13;;;15.30;88.10;;;;;;4988574;28;20035;-74
2022/03/30 12:32:53;;;;;;;18.42;9.10;;;15.20;86.60;;;;;;4989890;28;20022;-74
2022/03/30 12:35:19;;;;;;;15.15;7.90;;;15.20;86.00;;;;;;4990495;28;20386;-74
2022/03/30 12:37:48;;;;;;;12.75;7.75;;;15.20;85.50;;;;;;4990763;28;20030;-74
2022/03/30 12:40:20;;;;;;;11.60;7.82;;;15.20;85.90;;;;;;4991385;28;20546;-74
2022/03/30 12:42:47;;;;;;;14.38;8.57;;;15.30;85.90;;;;;;4990517;28;20022;-74
2022/03/30 12:45:17;;;;;;;11.70;7.88;;;15.30;84.20;;;;;;4990879;28;20351;-75